Time;durP1;ratioP1;P1;durP2;ratioP2;P2;SDS_P1;SDS_P2;PMS_P1;PMS_P2;Temp;Humidity;BMP_temperature;BMP_pressure;BME280_temperature;BME280_humidity;BME280_pressure;Samples;Min_cycle;Max_cycle;Signal;HPM_P1;HPM_P2
2022/01/25 00:28:40;;;;;;;68.30;43.15;;;4.60;75.10;;;;;;5039145;28;20036;-62
2022/01/25 00:31:18;;;;;;;68.28;43.30;;;4.60;75.20;;;;;;5073565;28;20093;-60
2022/01/25 00:33:53;;;;;;;68.22;43.47;;;4.70;75.30;;;;;;5056610;28;20107;-61
2022/01/25 00:36:22;;;;;;;74.22;44.22;;;4.70;75.20;;;;;;5074872;28;20024;-61
2022/01/25 00:38:48;;;;;;;69.80;44.17;;;4.70;75.00;;;;;;5074696;28;20028;-61
2022/01/25 00:41:15;;;;;;;69.88;44.10;;;4.70;75.10;;;;;;5058162;28;20446;-61
2022/01/25 00:43:41;;;;;;;67.25;42.65;;;4.70;74.90;;;;;;5072587;28;20477;-61
2022/01/25 00:46:10;;;;;;;68.60;43.38;;;4.70;74.70;;;;;;5073858;28;20052;-60
2022/01/25 00:51:36;;;;;;;70.50;43.38;;;4.70;74.90;;;;;;5069202;28;20055;-61
2022/01/25 00:54:04;;;;;;;72.38;43.33;;;4.70;74.80;;;;;;5074038;28;20060;-61
2022/01/25 00:56:33;;;;;;;67.18;42.33;;;4.70;74.80;;;;;;5070931;28;20025;-62
2022/01/25 00:59:00;;;;;;;70.30;44.33;;;4.70;74.90;;;;;;5065516;28;20033;-61
2022/01/25 01:01:26;;;;;;;66.25;42.05;;;4.70;74.90;;;;;;5055855;28;20515;-61
2022/01/25 01:03:53;;;;;;;70.47;44.17;;;4.70;75.80;;;;;;5055066;28;20488;-62
2022/01/25 01:06:19;;;;;;;68.97;44.15;;;4.70;74.90;;;;;;5056140;28;20033;-62
2022/01/25 01:08:45;;;;;;;73.43;45.50;;;4.70;74.90;;;;;;5073964;28;20036;-61
2022/01/25 01:11:17;;;;;;;68.25;42.88;;;4.70;75.00;;;;;;5055269;28;20044;-61
2022/01/25 01:48:27;;;;;;;77.82;44.30;;;4.60;76.20;;;;;;5058542;28;20096;-61
2022/01/25 01:50:57;;;;;;;74.88;45.85;;;4.60;75.60;;;;;;5092439;28;20091;-60
2022/01/25 01:53:23;;;;;;;76.97;45.65;;;4.50;75.80;;;;;;5093157;28;20529;-61
2022/01/25 01:55:49;;;;;;;73.60;46.55;;;4.50;76.10;;;;;;5093194;28;20097;-61
2022/01/25 01:58:15;;;;;;;74.95;46.65;;;4.50;76.00;;;;;;5091421;28;20804;-61
2022/01/25 02:00:44;;;;;;;71.68;43.58;;;4.50;76.30;;;;;;5093227;28;20051;-60
2022/01/25 02:03:09;;;;;;;72.00;45.47;;;4.50;76.20;;;;;;5090974;28;20043;-61
2022/01/25 02:05:36;;;;;;;76.22;45.58;;;4.50;76.20;;;;;;5087772;28;20024;-61
2022/01/25 02:08:02;;;;;;;75.15;46.90;;;4.60;76.20;;;;;;5092741;28;20458;-60
2022/01/25 02:10:28;;;;;;;74.53;46.22;;;4.60;76.00;;;;;;5091731;28;20029;-60
2022/01/25 02:12:54;;;;;;;73.20;44.25;;;4.60;76.00;;;;;;5092167;28;20528;-61
2022/01/25 02:15:21;;;;;;;74.70;45.60;;;4.70;75.90;;;;;;5090395;28;20038;-61
2022/01/25 02:23:19;;;;;;;72.70;45.92;;;4.70;75.70;;;;;;5081925;28;20527;-62
2022/01/25 02:25:46;;;;;;;75.95;46.05;;;4.70;75.90;;;;;;5093300;28;20020;-61
2022/01/25 02:28:12;;;;;;;70.85;44.13;;;4.70;75.90;;;;;;5091877;28;20039;-61
2022/01/25 02:30:38;;;;;;;73.03;44.15;;;4.70;75.80;;;;;;5092240;28;20020;-60
2022/01/25 02:33:04;;;;;;;74.70;45.83;;;4.70;75.70;;;;;;5090789;28;20085;-61
2022/01/25 02:35:30;;;;;;;70.25;44.22;;;4.60;75.80;;;;;;5092582;28;20021;-61
2022/01/25 02:37:56;;;;;;;74.28;45.80;;;4.70;75.80;;;;;;5092831;28;20027;-61
2022/01/25 02:40:21;;;;;;;76.45;45.35;;;4.60;75.60;;;;;;5089108;28;20096;-62
2022/01/25 02:42:47;;;;;;;74.90;43.70;;;4.60;75.80;;;;;;5092204;28;20067;-62
2022/01/25 02:45:16;;;;;;;71.38;46.38;;;4.70;76.10;;;;;;5091886;28;20047;-62
2022/01/25 02:50:27;;;;;;;71.68;45.38;;;4.80;75.40;;;;;;5087588;28;20097;-61
2022/01/25 02:52:53;;;;;;;73.93;45.58;;;4.90;75.40;;;;;;5091733;28;20123;-61
2022/01/25 02:55:19;;;;;;;74.38;47.65;;;4.90;75.00;;;;;;5085637;28;20088;-61
2022/01/25 02:57:48;;;;;;;74.75;45.85;;;4.90;75.00;;;;;;5072076;28;20111;-60
2022/01/25 03:00:15;;;;;;;74.03;44.83;;;4.80;74.70;;;;;;5076699;28;20043;-61
2022/01/25 03:02:41;;;;;;;71.63;44.55;;;4.70;75.00;;;;;;5070419;28;20132;-60
2022/01/25 03:05:07;;;;;;;72.10;47.22;;;4.70;75.80;;;;;;5083631;28;20107;-61
2022/01/25 03:07:34;;;;;;;72.68;45.50;;;4.60;75.30;;;;;;5092155;28;20032;-61
2022/01/25 03:10:00;;;;;;;74.82;44.80;;;4.60;75.60;;;;;;5091890;28;20028;-65
2022/01/25 03:18:55;;;;;;;70.65;44.67;;;4.80;75.70;;;;;;5078204;28;20445;-61
2022/01/25 03:23:57;;;;;;;72.15;44.35;;;4.90;75.20;;;;;;5071858;28;20024;-61
2022/01/25 03:26:24;;;;;;;72.38;46.65;;;4.90;75.20;;;;;;5071094;28;20047;-61
2022/01/25 03:28:52;;;;;;;77.50;45.13;;;4.90;75.60;;;;;;5061657;28;20037;-61
2022/01/25 03:31:18;;;;;;;66.95;42.90;;;4.90;74.80;;;;;;5047497;28;20330;-61
2022/01/25 03:33:45;;;;;;;72.63;44.88;;;5.00;74.90;;;;;;5071265;28;20462;-61
2022/01/25 03:36:12;;;;;;;71.43;44.15;;;5.00;74.70;;;;;;5071078;28;20099;-61
2022/01/25 03:38:40;;;;;;;70.85;44.42;;;4.90;74.30;;;;;;5071521;28;20035;-61
2022/01/25 03:41:11;;;;;;;74.65;44.58;;;4.80;74.50;;;;;;5053089;28;20073;-61
2022/01/25 03:43:37;;;;;;;68.53;44.22;;;4.80;74.70;;;;;;5055356;28;20052;-60
2022/01/25 03:46:14;;;;;;;68.45;42.33;;;4.70;74.90;;;;;;5073077;28;20041;-62
2022/01/25 03:51:24;;;;;;;69.13;43.20;;;4.70;75.50;;;;;;5074935;28;20090;-60
2022/01/25 03:53:51;;;;;;;72.10;44.03;;;4.70;75.00;;;;;;5075498;28;20458;-60
2022/01/25 03:56:17;;;;;;;71.72;45.90;;;4.70;75.10;;;;;;5074535;28;20039;-60
2022/01/25 03:58:43;;;;;;;66.85;42.67;;;4.70;75.30;;;;;;5074788;28;20024;-61
2022/01/25 04:01:27;;;;;;;67.68;43.13;;;4.80;75.50;;;;;;5056539;28;20041;-61
2022/01/25 04:04:06;;;;;;;72.15;44.03;;;4.90;75.20;;;;;;5072507;28;20033;-61
2022/01/25 04:06:33;;;;;;;72.85;44.67;;;4.80;74.70;;;;;;5075035;28;20027;-61
2022/01/25 04:09:01;;;;;;;69.05;44.47;;;4.80;74.80;;;;;;5057077;28;20024;-61
2022/01/25 04:11:27;;;;;;;73.70;45.40;;;4.70;74.90;;;;;;5074394;28;20024;-62
2022/01/25 04:13:56;;;;;;;69.35;43.90;;;4.80;75.70;;;;;;5074752;28;20031;-61
2022/01/25 04:16:28;;;;;;;70.15;45.25;;;4.70;75.10;;;;;;5056667;28;20028;-61
2022/01/25 04:19:01;;;;;;;67.47;44.60;;;4.80;75.20;;;;;;5064440;28;20041;-61
2022/01/25 04:26:44;;;;;;;67.50;43.22;;;4.90;75.10;;;;;;5074623;28;20097;-61
2022/01/25 04:29:10;;;;;;;70.38;43.50;;;4.90;74.80;;;;;;5074232;28;20408;-61
2022/01/25 04:31:37;;;;;;;67.70;44.03;;;4.90;74.60;;;;;;5056222;28;20032;-60
2022/01/25 04:53:22;;;;;;;68.93;44.33;;;5.00;75.60;;;;;;5041805;28;20463;-62
2022/01/25 04:58:34;;;;;;;71.43;44.10;;;5.10;75.50;;;;;;5073663;28;20058;-62
2022/01/25 05:01:00;;;;;;;72.45;45.22;;;5.10;75.30;;;;;;5074010;28;20020;-61
2022/01/25 05:03:35;;;;;;;70.65;44.13;;;5.20;75.30;;;;;;5073220;28;20044;-61
2022/01/25 05:06:09;;;;;;;69.28;39.55;;;5.20;75.20;;;;;;5049655;28;20025;-61
2022/01/25 05:08:43;;;;;;;66.72;40.03;;;5.20;75.40;;;;;;5054099;28;20086;-61
2022/01/25 05:18:40;;;;;;;71.25;39.80;;;5.30;76.00;;;;;;5073275;28;20373;-60
2022/01/25 05:23:51;;;;;;;69.47;37.03;;;5.20;76.60;;;;;;5090728;28;20089;-61
2022/01/25 05:26:17;;;;;;;73.32;39.70;;;5.20;76.70;;;;;;5090852;28;20051;-62
2022/01/25 05:28:43;;;;;;;67.85;38.33;;;5.20;76.90;;;;;;5093495;28;20079;-62
2022/01/25 05:31:09;;;;;;;73.30;38.78;;;5.20;77.00;;;;;;5093661;28;20148;-62
2022/01/25 05:33:34;;;;;;;72.95;39.03;;;5.20;77.00;;;;;;5092759;28;20378;-62
2022/01/25 05:36:00;;;;;;;68.55;38.22;;;5.20;77.20;;;;;;5091829;28;20036;-62
2022/01/25 05:38:26;;;;;;;72.18;39.75;;;5.20;77.30;;;;;;5090922;28;20032;-62
2022/01/25 05:41:02;;;;;;;71.97;38.83;;;5.20;77.80;;;;;;5092130;28;20421;-62
2022/01/25 05:44:07;;;;;;;75.65;40.17;;;5.10;77.20;;;;;;5091756;28;20181;-62
2022/01/25 05:46:47;;;;;;;69.10;37.00;;;5.10;77.30;;;;;;5093033;28;20024;-60
2022/01/25 05:49:13;;;;;;;72.50;39.53;;;5.20;77.50;;;;;;5091114;28;20472;-62
2022/01/25 05:51:39;;;;;;;71.28;36.70;;;5.20;77.30;;;;;;5093247;28;20075;-62
2022/01/25 05:54:04;;;;;;;66.30;37.38;;;5.30;77.20;;;;;;5070440;28;20101;-60
2022/01/25 05:56:30;;;;;;;69.47;39.10;;;5.30;77.10;;;;;;5075723;28;20029;-61
2022/01/25 05:58:56;;;;;;;75.30;40.35;;;5.30;77.00;;;;;;5076859;28;20024;-61
2022/01/25 06:01:21;;;;;;;72.97;40.05;;;5.30;77.10;;;;;;5091978;28;20465;-62
2022/01/25 06:03:47;;;;;;;74.00;40.65;;;5.30;77.00;;;;;;5091257;28;20465;-60
2022/01/25 06:06:13;;;;;;;71.68;41.05;;;5.40;76.90;;;;;;5091667;28;20142;-67
2022/01/25 06:08:39;;;;;;;75.10;42.05;;;5.40;76.60;;;;;;5091018;28;20313;-58
2022/01/25 06:11:06;;;;;;;66.45;39.80;;;5.30;76.30;;;;;;5089827;28;20545;-55
2022/01/25 06:13:32;;;;;;;66.07;41.70;;;5.30;76.00;;;;;;5079387;28;20020;-61
2022/01/25 06:15:58;;;;;;;69.15;42.53;;;5.30;76.10;;;;;;5091072;28;20473;-59
2022/01/25 06:18:23;;;;;;;67.45;41.00;;;5.40;76.50;;;;;;5074137;28;20024;-59
2022/01/25 06:20:49;;;;;;;65.15;41.22;;;5.40;75.60;;;;;;5076773;28;20123;-55
2022/01/25 06:23:15;;;;;;;67.78;41.67;;;5.40;75.40;;;;;;5070997;28;20496;-61
2022/01/25 06:25:41;;;;;;;60.67;35.97;;;5.40;75.60;;;;;;5072431;28;20376;-56
2022/01/25 06:28:07;;;;;;;68.72;38.88;;;5.50;75.70;;;;;;5054296;28;20390;-62
2022/01/25 06:30:33;;;;;;;66.90;38.60;;;5.50;75.50;;;;;;5051925;28;20432;-60
2022/01/25 06:32:59;;;;;;;68.82;40.05;;;5.50;75.30;;;;;;5071750;28;20028;-60
2022/01/25 06:35:46;;;;;;;68.30;38.78;;;5.50;75.30;;;;;;5053692;28;20086;-58
2022/01/25 06:38:12;;;;;;;67.60;35.97;;;5.70;75.40;;;;;;5054643;28;20025;-60
2022/01/25 06:40:38;;;;;;;71.72;35.60;;;5.60;75.00;;;;;;5071175;28;20428;-60
2022/01/25 06:43:05;;;;;;;65.22;36.13;;;5.60;75.00;;;;;;5071468;28;20032;-59
2022/01/25 06:45:31;;;;;;;66.93;35.53;;;5.60;75.10;;;;;;5051537;28;20051;-59
2022/01/25 06:47:57;;;;;;;71.00;36.45;;;5.60;75.40;;;;;;5071289;28;20056;-61
2022/01/25 06:50:23;;;;;;;66.68;37.15;;;5.60;75.10;;;;;;5048504;28;20481;-61
2022/01/25 06:52:53;;;;;;;67.95;36.13;;;5.60;75.00;;;;;;5049125;28;20036;-60
2022/01/25 06:55:20;;;;;;;65.72;34.95;;;5.60;75.10;;;;;;5071145;28;20125;-63
2022/01/25 06:57:46;;;;;;;63.17;34.35;;;5.60;75.20;;;;;;5066319;28;20028;-60
2022/01/25 07:00:15;;;;;;;58.22;34.22;;;5.60;75.30;;;;;;5053249;28;20043;-60
2022/01/25 07:02:42;;;;;;;57.47;34.05;;;5.60;75.30;;;;;;5051965;28;20039;-60
2022/01/25 07:05:08;;;;;;;61.80;33.50;;;5.60;75.40;;;;;;5052375;28;20370;-60
2022/01/25 07:07:34;;;;;;;57.80;32.15;;;5.70;75.40;;;;;;5069272;28;20025;-60
2022/01/25 07:10:00;;;;;;;58.10;32.15;;;5.70;75.20;;;;;;5052952;28;20088;-60
2022/01/25 07:12:28;;;;;;;57.63;32.20;;;5.70;75.00;;;;;;5070235;28;20099;-61
2022/01/25 07:14:53;;;;;;;53.95;32.78;;;5.70;74.90;;;;;;5044121;28;20469;-61
2022/01/25 07:17:19;;;;;;;55.63;32.95;;;5.80;74.80;;;;;;5063351;28;20021;-64
2022/01/25 07:19:45;;;;;;;62.58;33.85;;;5.80;74.70;;;;;;5066128;28;20497;-61
2022/01/25 07:22:11;;;;;;;60.72;33.45;;;5.80;75.00;;;;;;5082637;28;20044;-61
2022/01/25 07:24:37;;;;;;;57.80;33.17;;;5.80;74.90;;;;;;5085920;28;20182;-61
2022/01/25 07:27:03;;;;;;;57.40;31.50;;;5.90;74.70;;;;;;5089249;28;20035;-63
2022/01/25 07:29:28;;;;;;;62.33;32.30;;;5.80;74.40;;;;;;5087472;28;20032;-58
2022/01/25 07:31:55;;;;;;;52.67;30.73;;;5.80;74.40;;;;;;5083688;28;20044;-62
2022/01/25 07:34:21;;;;;;;51.95;30.00;;;5.80;74.60;;;;;;5087580;28;20481;-61
2022/01/25 07:36:47;;;;;;;51.20;29.77;;;5.80;74.40;;;;;;5088884;28;20056;-61
2022/01/25 07:39:13;;;;;;;49.88;29.48;;;5.80;74.30;;;;;;5090502;28;20109;-60
2022/01/25 07:41:39;;;;;;;52.20;29.70;;;5.90;74.40;;;;;;5089157;28;20036;-60
2022/01/25 07:44:06;;;;;;;50.75;28.63;;;5.90;74.40;;;;;;5090413;28;20109;-64
2022/01/25 07:46:33;;;;;;;47.67;29.02;;;5.90;74.40;;;;;;5085844;28;20550;-61
2022/01/25 07:48:59;;;;;;;53.45;28.73;;;5.90;74.40;;;;;;5083049;28;20043;-60
2022/01/25 07:51:28;;;;;;;49.35;29.35;;;5.90;74.40;;;;;;5088563;28;20164;-60
2022/01/25 07:53:55;;;;;;;53.00;29.95;;;5.90;74.10;;;;;;5089000;28;20028;-61
2022/01/25 07:56:22;;;;;;;53.40;30.35;;;5.90;74.30;;;;;;5089882;28;20024;-61
2022/01/25 07:58:48;;;;;;;50.38;30.48;;;6.00;74.40;;;;;;5088652;28;20028;-60
2022/01/25 08:01:18;;;;;;;46.08;26.83;;;5.90;74.30;;;;;;5087820;28;20431;-63
2022/01/25 08:03:43;;;;;;;52.55;27.10;;;5.90;74.10;;;;;;5085519;28;20028;-65
2022/01/25 08:06:12;;;;;;;47.63;27.48;;;5.90;74.20;;;;;;5090210;28;20055;-58
2022/01/25 08:08:39;;;;;;;42.10;25.38;;;6.00;74.20;;;;;;5090429;28;21455;-60
2022/01/25 08:11:04;;;;;;;38.83;23.13;;;5.90;73.80;;;;;;5088847;28;20078;-64
2022/01/25 08:13:30;;;;;;;45.55;24.92;;;5.90;73.90;;;;;;5083124;28;20052;-60
2022/01/25 08:15:57;;;;;;;39.22;23.15;;;5.90;73.90;;;;;;5071774;28;20029;-60
2022/01/25 08:18:22;;;;;;;42.35;23.63;;;5.90;73.90;;;;;;5089086;28;20021;-60
2022/01/25 08:20:48;;;;;;;33.13;21.05;;;5.90;74.10;;;;;;5086957;28;20054;-60
2022/01/25 08:23:15;;;;;;;35.20;22.15;;;6.00;73.90;;;;;;5049949;28;20037;-59
2022/01/25 08:25:41;;;;;;;30.17;20.30;;;6.00;73.30;;;;;;5070082;28;20033;-60
2022/01/25 08:28:07;;;;;;;30.80;19.33;;;6.00;73.30;;;;;;5069078;28;20434;-61
2022/01/25 08:30:33;;;;;;;27.17;18.52;;;6.00;73.10;;;;;;5072662;28;20082;-60
2022/01/25 08:32:58;;;;;;;27.50;18.55;;;5.90;72.80;;;;;;5033637;28;20040;-63
2022/01/25 08:35:25;;;;;;;26.80;18.33;;;6.00;72.90;;;;;;5070156;28;20054;-60
2022/01/25 08:37:51;;;;;;;27.88;17.50;;;6.00;72.70;;;;;;5071855;28;20020;-59
2022/01/25 08:40:18;;;;;;;26.80;17.60;;;6.00;72.60;;;;;;5071186;28;20036;-61
2022/01/25 08:42:43;;;;;;;28.98;16.80;;;6.00;72.60;;;;;;5054399;28;20039;-60
2022/01/25 08:45:11;;;;;;;29.90;17.85;;;6.00;72.60;;;;;;5071300;28;20037;-61
2022/01/25 08:47:37;;;;;;;35.92;16.77;;;6.10;72.80;;;;;;5071942;28;20382;-64
2022/01/25 08:50:05;;;;;;;39.83;18.33;;;6.00;72.40;;;;;;5067831;28;20023;-62
2022/01/25 08:52:49;;;;;;;32.83;16.83;;;6.00;72.50;;;;;;5070599;28;20029;-61
2022/01/25 08:55:15;;;;;;;34.85;16.98;;;6.10;72.40;;;;;;5069021;28;20441;-62
2022/01/25 08:57:41;;;;;;;28.08;15.30;;;6.10;72.70;;;;;;5068576;28;20115;-60
2022/01/25 09:00:09;;;;;;;27.92;15.82;;;6.10;72.50;;;;;;5050206;28;20047;-60
2022/01/25 09:02:35;;;;;;;29.00;15.70;;;6.10;72.60;;;;;;5067672;28;20363;-62
2022/01/25 09:05:01;;;;;;;25.17;16.05;;;6.00;72.40;;;;;;5069896;28;20114;-61
2022/01/25 09:07:26;;;;;;;25.20;15.88;;;5.90;72.60;;;;;;5068273;28;20033;-69
2022/01/25 09:09:52;;;;;;;26.45;15.25;;;6.00;72.80;;;;;;5063972;28;20040;-61
2022/01/25 09:12:18;;;;;;;26.98;16.60;;;6.00;72.80;;;;;;5067170;28;20032;-61
2022/01/25 09:14:44;;;;;;;26.05;16.00;;;6.10;72.60;;;;;;5072710;28;20036;-62
2022/01/25 09:17:10;;;;;;;24.13;15.45;;;6.10;72.40;;;;;;5071226;28;20381;-61
2022/01/25 09:19:38;;;;;;;24.83;16.02;;;6.10;72.20;;;;;;5068248;28;20017;-61
2022/01/25 09:22:07;;;;;;;25.67;15.73;;;6.20;72.20;;;;;;5071576;28;20052;-60
2022/01/25 09:24:33;;;;;;;25.50;16.00;;;6.20;72.00;;;;;;5054067;28;20032;-60
2022/01/25 09:26:59;;;;;;;23.45;15.80;;;6.20;72.10;;;;;;5051004;28;20032;-61
2022/01/25 09:29:24;;;;;;;32.30;16.88;;;6.20;72.10;;;;;;5066202;28;20029;-61
2022/01/25 09:31:50;;;;;;;27.67;15.80;;;6.20;71.70;;;;;;5050807;28;20040;-60
2022/01/25 09:34:16;;;;;;;25.90;14.95;;;6.20;72.00;;;;;;5065465;28;20077;-62
2022/01/25 09:36:42;;;;;;;32.90;15.38;;;6.10;71.80;;;;;;5048660;28;20036;-61
2022/01/25 09:39:08;;;;;;;25.13;14.63;;;6.10;72.00;;;;;;5053149;28;20472;-63
2022/01/25 09:41:34;;;;;;;27.10;14.80;;;6.10;72.20;;;;;;5041168;28;20039;-63
2022/01/25 09:44:02;;;;;;;32.35;15.82;;;6.10;72.00;;;;;;5048946;28;20037;-63
2022/01/25 09:46:28;;;;;;;26.15;14.43;;;6.10;72.20;;;;;;5065538;28;20367;-63
2022/01/25 09:48:53;;;;;;;24.73;14.48;;;6.10;72.00;;;;;;5067877;28;20103;-64
2022/01/25 09:51:20;;;;;;;20.88;13.27;;;6.20;71.90;;;;;;5067114;28;20044;-61
2022/01/25 09:53:46;;;;;;;27.35;14.43;;;6.20;71.90;;;;;;5068693;28;20033;-61
2022/01/25 09:56:12;;;;;;;27.65;14.23;;;6.30;71.80;;;;;;5054102;28;20494;-61
2022/01/25 09:58:38;;;;;;;26.02;13.68;;;6.30;71.60;;;;;;5061817;28;20108;-61
2022/01/25 10:01:05;;;;;;;22.80;14.48;;;6.20;71.40;;;;;;5064740;28;20441;-63
2022/01/25 10:03:36;;;;;;;25.20;14.07;;;6.10;71.70;;;;;;5046973;28;20785;-61
2022/01/25 10:06:04;;;;;;;24.63;14.82;;;6.10;71.70;;;;;;5070760;28;20032;-59
2022/01/25 10:08:36;;;;;;;24.90;13.68;;;6.10;72.10;;;;;;5052748;28;20166;-58
2022/01/25 10:11:11;;;;;;;21.35;13.13;;;6.20;72.00;;;;;;5049931;28;20051;-56
2022/01/25 10:13:40;;;;;;;25.08;13.75;;;6.30;71.70;;;;;;5071052;28;20032;-58
2022/01/25 10:16:14;;;;;;;23.83;14.05;;;6.30;71.50;;;;;;5069568;28;20393;-61
2022/01/25 10:18:44;;;;;;;24.73;13.85;;;6.10;71.30;;;;;;5050777;28;20027;-61
2022/01/25 10:21:21;;;;;;;30.85;13.57;;;6.00;71.70;;;;;;5058974;28;20050;-62
2022/01/25 10:24:08;;;;;;;23.35;13.57;;;6.00;72.10;;;;;;5088683;28;20109;-58
2022/01/25 10:26:39;;;;;;;23.27;14.70;;;6.10;72.00;;;;;;5089490;28;20031;-61
2022/01/25 10:29:06;;;;;;;22.58;13.13;;;6.10;72.00;;;;;;5087546;28;20564;-59
2022/01/25 10:31:35;;;;;;;29.45;13.93;;;6.20;72.00;;;;;;5085540;28;20175;-59
2022/01/25 10:34:02;;;;;;;24.52;14.40;;;6.20;72.00;;;;;;5087717;28;20221;-60
2022/01/25 10:36:28;;;;;;;23.25;14.18;;;6.30;71.60;;;;;;5084488;28;20032;-58
2022/01/25 10:38:55;;;;;;;23.20;14.38;;;6.20;71.50;;;;;;5085496;28;20062;-60
2022/01/25 10:41:26;;;;;;;25.20;14.10;;;6.20;71.70;;;;;;5079949;28;20157;-59
2022/01/25 10:43:55;;;;;;;24.05;14.00;;;6.10;71.90;;;;;;5078568;28;20028;-60
2022/01/25 10:46:26;;;;;;;27.63;15.02;;;6.10;72.20;;;;;;5078814;28;20030;-60
2022/01/25 10:49:05;;;;;;;22.88;14.05;;;6.10;72.50;;;;;;5075832;28;20079;-59
2022/01/25 10:51:40;;;;;;;28.45;14.10;;;6.20;72.40;;;;;;5087542;28;20032;-60
2022/01/25 10:54:09;;;;;;;26.45;13.63;;;6.20;72.10;;;;;;5082983;28;20032;-60
2022/01/25 10:56:57;;;;;;;23.80;13.98;;;6.30;72.10;;;;;;5078886;28;20028;-59
2022/01/25 10:59:32;;;;;;;25.95;13.93;;;6.30;72.20;;;;;;5076877;28;20108;-60
2022/01/25 11:02:00;;;;;;;24.23;13.75;;;6.30;71.70;;;;;;5050051;28;20039;-61
2022/01/25 11:04:34;;;;;;;22.52;13.27;;;6.20;71.30;;;;;;5072832;28;20036;-60
2022/01/25 11:07:03;;;;;;;22.80;14.10;;;6.00;71.80;;;;;;5088349;28;20036;-62
2022/01/25 11:09:43;;;;;;;31.25;14.30;;;6.00;72.30;;;;;;5084532;28;20020;-63
2022/01/25 11:12:14;;;;;;;25.92;14.25;;;6.00;72.50;;;;;;5077194;28;20129;-63
2022/01/25 11:14:59;;;;;;;24.20;14.23;;;6.10;72.50;;;;;;5076181;28;20035;-60
2022/01/25 11:17:28;;;;;;;21.98;13.77;;;6.20;72.30;;;;;;5074559;28;20023;-61
2022/01/25 11:19:55;;;;;;;23.67;13.10;;;6.20;72.30;;;;;;5081823;28;20024;-62
2022/01/25 11:22:21;;;;;;;26.73;15.07;;;6.20;72.10;;;;;;5064722;28;20052;-61
2022/01/25 11:24:50;;;;;;;26.73;13.30;;;6.20;72.10;;;;;;5056167;28;20029;-63
2022/01/25 11:27:17;;;;;;;31.73;15.88;;;6.10;72.40;;;;;;5030607;28;21415;-68
2022/01/25 11:29:45;;;;;;;26.63;15.00;;;6.20;72.40;;;;;;5042099;28;20736;-69
2022/01/25 11:32:19;;;;;;;25.10;13.98;;;6.20;72.40;;;;;;5039294;28;20772;-64
2022/01/25 11:34:47;;;;;;;24.88;14.95;;;6.20;72.30;;;;;;5053891;28;20025;-62
2022/01/25 11:37:13;;;;;;;22.80;14.70;;;6.20;72.40;;;;;;5042528;28;20033;-62
2022/01/25 11:39:43;;;;;;;23.45;14.10;;;6.30;72.60;;;;;;5063988;28;20036;-60
2022/01/25 11:42:13;;;;;;;23.85;14.27;;;6.30;72.10;;;;;;5044828;28;20083;-62
2022/01/25 11:44:49;;;;;;;23.88;14.07;;;6.30;72.20;;;;;;5049049;28;20032;-59
2022/01/25 11:47:17;;;;;;;22.83;13.93;;;6.20;72.40;;;;;;5064704;28;20035;-62
2022/01/25 11:49:57;;;;;;;19.48;12.73;;;6.30;72.40;;;;;;5070019;28;20466;-60
2022/01/25 11:52:26;;;;;;;21.25;13.52;;;6.30;72.50;;;;;;5061770;28;20032;-60
2022/01/25 11:54:54;;;;;;;23.50;12.80;;;6.30;72.50;;;;;;5036819;28;20067;-61
2022/01/25 11:57:25;;;;;;;23.25;14.25;;;6.30;72.00;;;;;;5034253;28;20028;-62
2022/01/25 11:59:54;;;;;;;26.38;14.60;;;6.30;72.10;;;;;;5058074;28;20085;-60
2022/01/25 12:02:39;;;;;;;23.35;13.70;;;6.30;72.40;;;;;;5051699;28;20037;-64
2022/01/25 12:05:07;;;;;;;20.90;13.23;;;6.30;72.30;;;;;;5072822;28;20434;-59
2022/01/25 12:07:39;;;;;;;25.52;14.27;;;6.30;71.70;;;;;;5063802;28;20032;-61
2022/01/25 12:10:35;;;;;;;27.08;14.90;;;6.30;72.10;;;;;;5056421;28;20028;-59
2022/01/25 12:13:25;;;;;;;21.67;12.35;;;6.30;71.70;;;;;;5074669;28;20055;-60
2022/01/25 12:16:30;;;;;;;19.67;12.15;;;6.30;71.60;;;;;;5056781;28;20454;-60
2022/01/25 12:19:05;;;;;;;20.25;12.85;;;6.20;72.20;;;;;;4950969;28;20122;-59
2022/01/25 12:21:50;;;;;;;23.85;13.10;;;6.20;72.40;;;;;;4975236;28;20096;-61
2022/01/25 12:24:22;;;;;;;27.30;12.63;;;6.20;72.20;;;;;;5003002;28;20076;-63
2022/01/25 12:27:07;;;;;;;20.65;13.20;;;6.00;72.60;;;;;;5012321;28;20034;-61
2022/01/25 12:29:39;;;;;;;38.40;14.60;;;6.00;73.10;;;;;;5010721;28;20158;-60
2022/01/25 12:32:18;;;;;;;19.50;12.75;;;6.00;73.10;;;;;;4995906;28;20037;-59
2022/01/25 12:34:57;;;;;;;22.15;13.35;;;6.00;73.30;;;;;;5011162;28;20040;-62
2022/01/25 12:37:52;;;;;;;25.38;13.45;;;5.90;73.60;;;;;;4994683;28;20038;-64
2022/01/25 12:40:24;;;;;;;25.55;14.50;;;5.90;73.80;;;;;;5010131;28;20462;-61
2022/01/25 12:43:11;;;;;;;23.65;14.48;;;6.00;73.70;;;;;;5011349;28;20089;-62
2022/01/25 12:45:44;;;;;;;23.42;14.55;;;6.10;73.70;;;;;;5006152;28;20270;-63
2022/01/25 12:48:12;;;;;;;28.35;15.27;;;6.20;73.10;;;;;;5008057;28;20045;-63
2022/01/25 12:50:41;;;;;;;24.02;13.93;;;6.20;72.60;;;;;;5081753;28;20040;-62
2022/01/25 12:53:11;;;;;;;25.48;14.70;;;6.30;72.60;;;;;;5090448;28;20035;-62
2022/01/25 12:55:40;;;;;;;26.17;15.18;;;6.30;72.50;;;;;;5090569;28;20257;-63
2022/01/25 12:58:07;;;;;;;23.48;14.15;;;6.20;72.00;;;;;;5090247;28;20381;-63
2022/01/25 13:00:55;;;;;;;30.73;15.25;;;6.20;72.40;;;;;;5089135;28;20077;-61
2022/01/25 13:03:29;;;;;;;26.27;14.63;;;6.20;72.40;;;;;;5090567;28;20429;-62
2022/01/25 13:06:00;;;;;;;29.20;16.52;;;6.20;72.50;;;;;;5088007;28;20067;-63
2022/01/25 13:08:34;;;;;;;23.98;14.93;;;6.20;72.70;;;;;;5092204;28;20093;-63
2022/01/25 13:11:20;;;;;;;33.78;14.93;;;6.20;72.60;;;;;;5092648;28;20039;-61
2022/01/25 13:14:02;;;;;;;28.52;14.80;;;6.20;72.30;;;;;;5091193;28;20487;-62
2022/01/25 13:16:38;;;;;;;30.65;15.90;;;6.20;72.60;;;;;;5092394;28;20035;-64
2022/01/25 13:19:03;;;;;;;29.27;15.27;;;6.10;72.90;;;;;;5091525;28;20027;-63
2022/01/25 13:21:39;;;;;;;33.97;16.67;;;6.10;73.20;;;;;;5084575;28;20461;-64
2022/01/25 13:24:11;;;;;;;34.33;16.20;;;6.10;73.70;;;;;;5055328;28;20033;-65
2022/01/25 13:26:47;;;;;;;35.65;16.15;;;6.20;73.50;;;;;;5043181;28;20106;-63
2022/01/25 13:32:26;;;;;;;28.05;17.98;;;6.10;73.20;;;;;;5070568;28;20385;-67
2022/01/25 13:35:30;;;;;;;28.42;18.00;;;6.10;73.30;;;;;;5065372;28;20037;-65
2022/01/25 13:38:10;;;;;;;27.38;16.65;;;6.10;73.40;;;;;;5054070;28;20119;-68
2022/01/25 13:40:48;;;;;;;27.60;15.68;;;6.20;73.50;;;;;;5053082;28;20064;-68
2022/01/25 13:45:57;;;;;;;40.22;17.40;;;6.10;73.40;;;;;;5070168;28;20032;-65
2022/01/25 13:48:26;;;;;;;30.20;16.23;;;6.00;73.60;;;;;;5070943;28;20516;-66
2022/01/25 13:50:57;;;;;;;27.58;15.40;;;6.00;73.80;;;;;;5047925;28;20024;-69
2022/01/25 13:53:24;;;;;;;33.45;16.00;;;6.00;74.00;;;;;;5066608;28;20115;-68
2022/01/25 13:55:52;;;;;;;30.77;16.85;;;6.00;74.10;;;;;;5067422;28;20039;-67
2022/01/25 13:58:19;;;;;;;26.98;17.02;;;6.00;74.00;;;;;;5068540;28;20078;-67
2022/01/25 14:00:45;;;;;;;33.00;18.20;;;6.00;73.60;;;;;;5050717;28;20120;-72
2022/01/25 14:03:12;;;;;;;36.88;17.83;;;5.90;73.90;;;;;;5046647;28;20071;-65
2022/01/25 14:05:38;;;;;;;30.42;17.13;;;5.90;74.00;;;;;;5070582;28;20029;-66
2022/01/25 14:08:04;;;;;;;26.45;15.45;;;6.00;73.90;;;;;;5070182;28;20047;-67
2022/01/25 14:10:30;;;;;;;30.02;16.77;;;5.90;73.80;;;;;;5068713;28;20527;-64
2022/01/25 14:24:07;;;;;;;28.52;15.65;;;5.80;74.40;;;;;;5058754;28;20105;-67
2022/01/25 14:26:33;;;;;;;43.70;17.10;;;5.90;74.40;;;;;;5053555;28;20032;-69
2022/01/25 14:29:12;;;;;;;39.88;17.85;;;6.00;74.20;;;;;;5038018;28;20044;-66
2022/01/25 14:31:43;;;;;;;29.88;17.10;;;6.10;74.00;;;;;;5068550;28;20025;-66
2022/01/25 14:34:11;;;;;;;27.20;16.10;;;6.10;73.40;;;;;;5043483;28;20139;-61
2022/01/25 14:36:46;;;;;;;29.80;15.73;;;6.00;73.10;;;;;;5058672;28;20066;-63
2022/01/25 14:39:13;;;;;;;36.30;16.08;;;5.90;73.60;;;;;;5063426;28;20021;-61
2022/01/25 14:41:39;;;;;;;31.42;16.60;;;6.00;73.70;;;;;;5068052;28;20060;-62
2022/01/25 14:44:11;;;;;;;33.28;16.75;;;6.00;73.50;;;;;;5051826;28;20074;-61
2022/01/25 14:46:49;;;;;;;27.65;17.13;;;5.90;73.80;;;;;;5029860;28;20028;-61
2022/01/25 14:49:25;;;;;;;28.23;16.50;;;5.90;74.00;;;;;;5064139;28;20065;-62
2022/01/25 14:52:06;;;;;;;31.90;17.05;;;5.80;74.30;;;;;;5047683;28;20031;-62
2022/01/25 14:54:34;;;;;;;40.25;16.52;;;5.80;74.50;;;;;;5050389;28;20025;-63
2022/01/25 14:57:05;;;;;;;32.50;17.98;;;5.90;74.60;;;;;;5049708;28;20028;-63
2022/01/25 14:59:38;;;;;;;41.05;16.92;;;5.90;74.40;;;;;;5081947;28;20016;-61
2022/01/25 15:02:16;;;;;;;36.08;18.67;;;5.90;74.40;;;;;;5066261;28;20581;-61
2022/01/25 15:04:55;;;;;;;35.50;18.10;;;6.00;74.50;;;;;;5031369;28;20024;-62
2022/01/25 15:07:33;;;;;;;36.17;18.38;;;6.00;74.60;;;;;;5047962;28;20025;-62